Time;durP1;ratioP1;P1;durP2;ratioP2;P2;SDS_P1;SDS_P2;PMS_P1;PMS_P2;Temp;Humidity;BMP_temperature;BMP_pressure;BME280_temperature;BME280_humidity;BME280_pressure;Samples;Min_cycle;Max_cycle;Signal;HPM_P1;HPM_P2
2022/06/11 00:01:10;;;;;;;2.72;1.80;;;16.50;99.90;;;;;;5073702;28;20185;-62
2022/06/11 00:03:36;;;;;;;4.45;1.90;;;16.40;99.90;;;;;;5073491;28;20185;-62
2022/06/11 00:06:03;;;;;;;3.30;2.20;;;16.40;99.90;;;;;;5073273;28;20203;-62
2022/06/11 00:08:30;;;;;;;2.20;1.70;;;16.30;99.90;;;;;;5073788;28;20169;-62
2022/06/11 00:10:55;;;;;;;2.67;1.95;;;16.30;99.90;;;;;;5073879;28;20185;-62
2022/06/11 00:13:22;;;;;;;4.78;2.15;;;16.20;99.90;;;;;;5073151;28;20204;-62
2022/06/11 00:15:49;;;;;;;2.55;2.00;;;16.30;99.90;;;;;;5073574;28;20737;-62
2022/06/11 00:18:16;;;;;;;2.38;1.90;;;16.20;99.90;;;;;;5073985;28;20592;-62
2022/06/11 00:20:41;;;;;;;3.72;2.00;;;16.20;99.90;;;;;;5073460;28;20216;-62
2022/06/11 00:23:07;;;;;;;3.50;1.70;;;16.10;99.90;;;;;;5073013;28;20260;-62
2022/06/11 00:25:34;;;;;;;3.50;1.70;;;16.10;99.90;;;;;;5054021;28;20185;-62
2022/06/11 00:28:00;;;;;;;2.97;2.20;;;16.10;99.90;;;;;;5070434;28;20532;-62
2022/06/11 00:30:26;;;;;;;2.58;1.73;;;16.10;99.90;;;;;;5071749;28;20234;-62
2022/06/11 00:32:52;;;;;;;2.05;1.80;;;16.00;99.90;;;;;;5073425;28;20260;-62
2022/06/11 00:35:18;;;;;;;1.98;1.80;;;16.00;99.90;;;;;;5073259;28;20702;-62
2022/06/11 00:37:45;;;;;;;3.50;2.08;;;15.90;99.90;;;;;;5072469;28;20393;-62
2022/06/11 00:40:14;;;;;;;2.95;1.90;;;15.90;99.90;;;;;;5072790;28;20224;-62
2022/06/11 00:42:40;;;;;;;6.63;2.88;;;15.80;99.90;;;;;;5073545;28;20253;-62
2022/06/11 00:45:31;;;;;;;2.65;2.28;;;15.90;99.90;;;;;;5072865;28;20628;-62
2022/06/11 00:48:03;;;;;;;3.47;1.88;;;15.90;99.90;;;;;;5073028;28;20188;-62
2022/06/11 00:50:37;;;;;;;3.70;1.85;;;15.80;99.90;;;;;;5071994;28;20225;-61
2022/06/11 00:53:11;;;;;;;2.95;1.98;;;15.80;99.90;;;;;;5073143;28;20214;-62
2022/06/11 00:55:38;;;;;;;2.30;1.90;;;15.70;99.90;;;;;;5073022;28;20256;-62
2022/06/11 00:58:12;;;;;;;2.30;1.90;;;15.70;99.90;;;;;;5072794;28;20180;-62
2022/06/11 01:00:45;;;;;;;3.03;2.33;;;15.70;99.90;;;;;;5072610;28;20277;-62
2022/06/11 01:03:14;;;;;;;3.65;1.83;;;15.60;99.90;;;;;;5073002;28;20207;-62
2022/06/11 01:05:45;;;;;;;2.83;2.00;;;15.60;99.90;;;;;;5072475;28;20191;-62
2022/06/11 01:08:41;;;;;;;2.38;2.17;;;15.50;99.90;;;;;;5071667;28;20177;-62
2022/06/11 01:11:52;;;;;;;3.10;2.10;;;15.50;99.90;;;;;;5068437;28;20223;-62
2022/06/11 01:14:36;;;;;;;4.75;2.17;;;15.50;99.90;;;;;;5061184;28;20219;-62
2022/06/11 01:17:17;;;;;;;2.25;2.00;;;15.50;99.90;;;;;;5072738;28;20665;-61
2022/06/11 01:20:20;;;;;;;2.63;2.13;;;15.50;99.90;;;;;;5055746;28;20250;-62
2022/06/11 01:23:16;;;;;;;5.38;2.42;;;15.50;99.90;;;;;;5056827;28;20192;-62
2022/06/11 01:25:47;;;;;;;3.22;2.30;;;15.40;99.90;;;;;;5070458;28;20591;-62
2022/06/11 01:28:21;;;;;;;3.20;2.10;;;15.40;99.90;;;;;;5072391;28;20567;-62
2022/06/11 01:30:59;;;;;;;2.45;1.90;;;15.40;99.90;;;;;;5071919;28;20231;-62
2022/06/11 01:33:36;;;;;;;2.60;2.40;;;15.30;99.90;;;;;;5072169;28;20636;-62
2022/06/11 01:36:08;;;;;;;4.22;2.30;;;15.30;99.90;;;;;;5052546;28;20192;-62
2022/06/11 01:38:42;;;;;;;2.75;2.25;;;15.20;99.90;;;;;;5071436;28;20688;-62
2022/06/11 01:41:14;;;;;;;3.42;2.33;;;15.10;99.90;;;;;;5070948;28;20608;-62
2022/06/11 01:43:43;;;;;;;3.63;2.33;;;15.10;99.90;;;;;;5071711;28;20570;-62
2022/06/11 01:46:35;;;;;;;4.30;2.25;;;15.10;99.90;;;;;;5072305;28;20195;-62
2022/06/11 01:49:19;;;;;;;2.67;2.20;;;15.00;99.90;;;;;;5069868;28;20227;-62
2022/06/11 01:51:55;;;;;;;2.33;2.13;;;14.90;99.90;;;;;;5071776;28;20218;-62
2022/06/11 01:54:28;;;;;;;2.55;1.92;;;14.90;99.90;;;;;;5059648;28;20259;-61
2022/06/11 01:57:02;;;;;;;3.13;2.22;;;14.80;99.90;;;;;;5071739;28;20192;-62
2022/06/11 01:59:37;;;;;;;3.08;1.90;;;14.80;99.90;;;;;;5065970;28;20228;-62
2022/06/11 02:03:04;;;;;;;4.57;2.53;;;14.80;99.90;;;;;;5071681;28;20642;-62
2022/06/11 02:05:38;;;;;;;2.20;2.00;;;14.80;99.90;;;;;;5026150;28;20549;-62
2022/06/11 02:08:28;;;;;;;2.97;1.80;;;14.70;99.90;;;;;;5061534;28;20196;-61
2022/06/11 02:11:01;;;;;;;4.05;1.92;;;14.70;99.90;;;;;;5071449;28;20185;-62
2022/06/11 02:13:39;;;;;;;6.30;2.30;;;14.60;99.90;;;;;;5071855;28;20177;-62
2022/06/11 02:16:15;;;;;;;5.47;2.33;;;14.60;99.90;;;;;;5071223;28;20539;-62
2022/06/11 02:18:44;;;;;;;2.63;2.25;;;14.50;99.90;;;;;;5071586;28;20227;-62
2022/06/11 02:21:16;;;;;;;2.53;2.30;;;14.50;99.90;;;;;;5070941;28;20196;-62
2022/06/11 02:23:49;;;;;;;3.28;2.05;;;14.50;99.90;;;;;;5071593;28;20666;-62
2022/06/11 02:26:19;;;;;;;3.50;2.20;;;14.50;99.90;;;;;;5070910;28;20275;-62
2022/06/11 02:28:47;;;;;;;3.72;2.28;;;14.50;99.90;;;;;;5072098;28;20230;-62
2022/06/11 02:31:17;;;;;;;2.42;2.20;;;14.40;99.90;;;;;;5069852;28;20284;-62
2022/06/11 02:33:44;;;;;;;2.70;2.17;;;14.40;99.90;;;;;;5054822;28;20204;-61
2022/06/11 02:36:10;;;;;;;3.55;2.42;;;14.30;99.90;;;;;;5071257;28;20177;-62
2022/06/11 02:38:36;;;;;;;3.55;1.92;;;14.30;99.90;;;;;;5071147;28;20648;-62
2022/06/11 02:41:07;;;;;;;4.15;2.20;;;14.30;99.90;;;;;;5071089;28;20181;-62
2022/06/11 02:43:33;;;;;;;4.20;2.30;;;14.30;99.90;;;;;;5071329;28;20180;-62
2022/06/11 02:46:40;;;;;;;2.65;2.00;;;14.30;99.90;;;;;;5071447;28;20181;-62
2022/06/11 02:48:45;;;;;;;2.67;2.05;;;14.30;99.90;;;;;;5071041;28;20180;-62
2022/06/11 02:51:10;;;;;;;2.40;2.15;;;14.30;99.90;;;;;;5070581;28;20180;-62
2022/06/11 02:53:36;;;;;;;3.85;2.20;;;14.20;99.90;;;;;;5070486;28;20181;-62
2022/06/11 02:56:02;;;;;;;3.40;2.05;;;14.20;99.90;;;;;;5071006;28;20675;-62
2022/06/11 02:58:28;;;;;;;3.00;2.28;;;14.20;99.90;;;;;;5071017;28;20662;-62
2022/06/11 03:00:53;;;;;;;3.50;2.20;;;14.20;99.90;;;;;;5071533;28;20224;-62
2022/06/11 03:03:19;;;;;;;2.92;2.28;;;14.20;99.90;;;;;;5075278;28;20180;-62
2022/06/11 03:05:44;;;;;;;2.65;1.88;;;14.10;99.90;;;;;;5075150;28;20181;-62
2022/06/11 03:08:10;;;;;;;3.30;2.15;;;14.10;99.90;;;;;;5074723;28;20711;-62
2022/06/11 03:10:37;;;;;;;2.63;2.38;;;14.10;99.90;;;;;;5074434;28;20530;-62
2022/06/11 03:13:03;;;;;;;2.92;2.00;;;14.10;99.90;;;;;;5074940;28;20176;-62
2022/06/11 03:15:29;;;;;;;2.40;2.20;;;14.10;99.90;;;;;;5074240;28;20726;-62
2022/06/11 03:17:56;;;;;;;2.75;2.15;;;14.10;99.90;;;;;;5074357;28;20184;-62
2022/06/11 03:20:25;;;;;;;3.63;2.17;;;14.10;99.90;;;;;;5073954;28;20319;-62
2022/06/11 03:22:50;;;;;;;2.30;2.10;;;14.10;99.90;;;;;;5069197;28;20212;-62
2022/06/11 03:25:16;;;;;;;4.97;2.20;;;14.10;99.90;;;;;;5074251;28;20203;-62
2022/06/11 03:27:43;;;;;;;3.83;2.17;;;14.00;99.90;;;;;;5074113;28;20614;-63
2022/06/11 03:30:11;;;;;;;2.38;2.17;;;14.00;99.90;;;;;;5071411;28;20185;-63
2022/06/11 03:32:36;;;;;;;3.35;2.30;;;14.00;99.90;;;;;;5073999;28;20183;-63
2022/06/11 03:35:03;;;;;;;3.85;2.33;;;14.00;99.90;;;;;;5074188;28;20188;-62
2022/06/11 03:37:29;;;;;;;2.75;2.38;;;14.00;99.90;;;;;;5072342;28;20276;-61
2022/06/11 03:39:55;;;;;;;2.53;2.13;;;14.00;99.90;;;;;;5071025;28;20311;-61
2022/06/11 03:42:20;;;;;;;3.55;2.50;;;14.00;99.90;;;;;;5073387;28;20256;-61
2022/06/11 03:44:46;;;;;;;3.45;2.10;;;13.90;99.90;;;;;;5072986;28;20743;-61
2022/06/11 03:47:12;;;;;;;5.15;2.55;;;14.00;99.90;;;;;;5074475;28;20704;-61
2022/06/11 03:49:37;;;;;;;5.93;2.22;;;14.00;99.90;;;;;;5072743;28;20177;-65
2022/06/11 03:52:04;;;;;;;3.67;2.35;;;14.00;99.90;;;;;;5074532;28;20280;-62
2022/06/11 03:54:29;;;;;;;5.13;2.50;;;14.00;99.90;;;;;;5074098;28;20172;-60
2022/06/11 03:56:55;;;;;;;2.42;2.22;;;14.10;99.90;;;;;;5074073;28;20235;-62
2022/06/11 03:59:20;;;;;;;4.45;2.50;;;14.10;99.90;;;;;;5073514;28;20212;-61
2022/06/11 04:01:47;;;;;;;3.58;2.47;;;14.10;99.90;;;;;;5074107;28;20348;-62
2022/06/11 04:04:15;;;;;;;3.05;2.40;;;14.20;99.90;;;;;;5073609;28;20188;-64
2022/06/11 04:06:45;;;;;;;4.78;3.35;;;14.20;99.90;;;;;;5073724;28;20179;-62
2022/06/11 04:09:21;;;;;;;6.47;3.50;;;14.30;99.90;;;;;;5074224;28;20189;-61
2022/06/11 04:11:48;;;;;;;10.60;2.95;;;14.40;99.90;;;;;;5073690;28;20192;-67
2022/06/11 04:14:14;;;;;;;3.17;2.63;;;14.40;99.90;;;;;;5072629;28;20246;-63
2022/06/11 04:16:44;;;;;;;5.03;2.70;;;14.50;99.90;;;;;;5073465;28;20702;-63
2022/06/11 04:19:18;;;;;;;2.90;2.60;;;14.70;99.90;;;;;;5073284;28;20225;-62
2022/06/11 04:21:44;;;;;;;4.30;2.60;;;14.90;99.90;;;;;;5074102;28;20177;-62
2022/06/11 04:24:09;;;;;;;3.95;2.60;;;15.30;99.90;;;;;;5073832;28;20181;-63
2022/06/11 04:26:39;;;;;;;4.80;2.42;;;15.60;99.90;;;;;;5073392;28;20188;-62
2022/06/11 04:29:07;;;;;;;3.33;2.38;;;16.00;99.90;;;;;;5073980;28;20534;-64
2022/06/11 04:31:34;;;;;;;4.72;2.30;;;16.40;99.90;;;;;;5073929;28;20204;-63
2022/06/11 04:34:00;;;;;;;2.40;2.17;;;16.80;99.90;;;;;;5073592;28;20185;-62
2022/06/11 04:36:28;;;;;;;3.35;2.20;;;17.10;99.90;;;;;;5073928;28;20171;-63
2022/06/11 04:38:53;;;;;;;3.00;2.08;;;17.50;99.90;;;;;;5073243;28;20222;-63
2022/06/11 04:41:20;;;;;;;2.63;2.05;;;17.80;99.90;;;;;;5073454;28;20185;-63
2022/06/11 04:43:45;;;;;;;3.42;2.38;;;18.20;99.90;;;;;;5063161;28;20465;-62
2022/06/11 04:46:13;;;;;;;3.53;2.33;;;18.50;99.90;;;;;;5053663;28;20208;-63
2022/06/11 04:48:40;;;;;;;5.07;2.15;;;18.80;99.90;;;;;;5063721;28;20185;-63
2022/06/11 04:51:06;;;;;;;2.40;2.20;;;19.10;99.90;;;;;;5073333;28;20189;-63
2022/06/11 04:53:31;;;;;;;2.30;2.10;;;19.40;99.90;;;;;;5072900;28;20173;-63
2022/06/11 04:55:57;;;;;;;2.15;1.95;;;19.80;99.90;;;;;;5072997;28;20636;-63
2022/06/11 04:58:23;;;;;;;3.30;1.92;;;20.20;99.90;;;;;;5073162;28;20199;-62
2022/06/11 05:00:49;;;;;;;6.15;2.90;;;20.60;99.90;;;;;;5072717;28;20266;-63
2022/06/11 05:03:16;;;;;;;5.03;3.53;;;21.00;99.90;;;;;;5067127;28;20188;-63
2022/06/11 05:05:42;;;;;;;2.92;2.35;;;21.50;99.30;;;;;;5051909;28;20227;-63
2022/06/11 05:08:10;;;;;;;3.22;2.20;;;21.90;98.30;;;;;;5053461;28;20180;-63
2022/06/11 05:10:36;;;;;;;2.92;1.95;;;22.30;97.10;;;;;;5072893;28;20691;-63
2022/06/11 05:13:03;;;;;;;2.45;2.05;;;22.70;96.30;;;;;;5072998;28;20315;-63
2022/06/11 05:15:29;;;;;;;5.88;2.80;;;22.90;95.50;;;;;;5073077;28;20185;-67
2022/06/11 05:17:55;;;;;;;3.70;2.50;;;23.20;94.80;;;;;;5072765;28;20179;-67
2022/06/11 05:20:21;;;;;;;2.80;2.30;;;23.50;94.30;;;;;;5072776;28;20699;-67
2022/06/11 05:22:47;;;;;;;4.18;2.47;;;23.80;93.90;;;;;;5072360;28;20169;-67
2022/06/11 05:25:15;;;;;;;3.38;2.63;;;24.10;92.80;;;;;;5071510;28;20224;-67
2022/06/11 05:27:42;;;;;;;3.50;2.10;;;24.40;92.00;;;;;;5072294;28;20291;-67
2022/06/11 05:30:15;;;;;;;4.35;2.10;;;24.60;91.40;;;;;;5072776;28;20220;-67
2022/06/11 05:32:42;;;;;;;2.97;2.38;;;24.90;90.40;;;;;;5052755;28;20185;-67
2022/06/11 05:35:12;;;;;;;2.53;2.28;;;25.30;88.90;;;;;;5052746;28;20649;-67
2022/06/11 05:37:37;;;;;;;5.40;2.10;;;25.50;86.90;;;;;;5071337;28;20196;-67
2022/06/11 05:40:06;;;;;;;6.53;2.20;;;25.70;85.70;;;;;;5072245;28;20208;-66
2022/06/11 05:42:31;;;;;;;3.17;1.98;;;26.00;84.90;;;;;;5072221;28;20263;-67
2022/06/11 05:44:57;;;;;;;4.53;2.13;;;26.20;83.00;;;;;;5072363;28;20731;-67
2022/06/11 05:47:25;;;;;;;1.95;1.85;;;26.60;81.00;;;;;;5072618;28;20176;-66
2022/06/11 05:49:55;;;;;;;3.13;1.92;;;27.00;79.30;;;;;;5071143;28;20220;-65
2022/06/11 05:52:24;;;;;;;3.63;2.13;;;27.50;77.80;;;;;;5072479;28;20184;-64
2022/06/11 05:54:51;;;;;;;3.40;2.05;;;27.90;75.30;;;;;;5071948;28;20195;-65
2022/06/11 05:57:20;;;;;;;3.72;2.15;;;28.40;73.30;;;;;;5072172;28;20528;-65
2022/06/11 05:59:50;;;;;;;4.05;1.90;;;28.70;70.50;;;;;;5072174;28;20583;-65
2022/06/11 06:02:19;;;;;;;5.38;2.05;;;28.90;69.80;;;;;;5072029;28;20551;-65
2022/06/11 06:04:44;;;;;;;5.13;1.90;;;29.30;67.60;;;;;;5072358;28;20620;-65
2022/06/11 06:07:10;;;;;;;3.72;1.95;;;29.60;66.70;;;;;;5071804;28;20188;-65
2022/06/11 06:09:36;;;;;;;3.53;1.90;;;29.90;64.40;;;;;;5072157;28;20173;-66
2022/06/11 06:12:03;;;;;;;2.10;1.90;;;30.30;61.90;;;;;;5064610;28;20272;-65
2022/06/11 06:14:29;;;;;;;6.07;2.05;;;30.70;60.70;;;;;;5065672;28;20176;-65
2022/06/11 06:16:54;;;;;;;4.75;2.08;;;31.10;59.00;;;;;;5070551;28;20180;-66
2022/06/11 06:19:20;;;;;;;3.33;1.85;;;31.40;58.00;;;;;;5071617;28;20319;-65
2022/06/11 06:21:46;;;;;;;10.43;2.35;;;31.60;57.00;;;;;;5071919;28;20204;-65
2022/06/11 06:24:11;;;;;;;5.35;1.80;;;31.60;56.10;;;;;;5071640;28;20211;-65
2022/06/11 06:26:37;;;;;;;2.35;1.80;;;31.60;55.80;;;;;;5070648;28;20176;-65
2022/06/11 06:29:04;;;;;;;4.25;2.30;;;31.70;55.60;;;;;;5071425;28;20184;-65
2022/06/11 06:31:30;;;;;;;5.15;2.10;;;31.70;55.00;;;;;;5071687;28;20585;-66
2022/06/11 06:34:01;;;;;;;4.13;1.88;;;31.90;55.10;;;;;;5071477;28;20184;-65
2022/06/11 06:36:28;;;;;;;5.53;1.98;;;32.30;54.10;;;;;;5073713;28;20685;-65
2022/06/11 06:38:54;;;;;;;3.28;2.10;;;32.30;54.30;;;;;;5075776;28;20669;-65
2022/06/11 06:41:20;;;;;;;3.95;2.10;;;32.60;53.80;;;;;;5075715;28;20267;-66
2022/06/11 06:43:48;;;;;;;2.38;1.80;;;33.00;52.50;;;;;;5075774;28;20164;-66
2022/06/11 06:46:15;;;;;;;2.97;1.90;;;33.20;51.80;;;;;;5077113;28;20191;-66
2022/06/11 06:48:42;;;;;;;2.92;1.55;;;33.40;51.30;;;;;;5095762;28;20247;-66
2022/06/11 06:51:07;;;;;;;2.90;1.80;;;33.60;50.30;;;;;;5080829;28;20550;-66
2022/06/11 06:53:34;;;;;;;2.97;1.60;;;33.70;50.20;;;;;;5071980;28;20180;-66
2022/06/11 06:56:00;;;;;;;3.70;1.80;;;33.80;49.90;;;;;;5075859;28;20224;-66
2022/06/11 06:58:25;;;;;;;2.15;1.63;;;34.10;49.80;;;;;;5075445;28;20179;-66
2022/06/11 07:00:52;;;;;;;4.05;1.92;;;34.30;49.20;;;;;;5075255;28;20274;-66
2022/06/11 07:03:17;;;;;;;3.55;1.90;;;34.30;48.40;;;;;;5075481;28;20176;-66
2022/06/11 07:05:44;;;;;;;4.63;1.70;;;34.40;47.40;;;;;;5075667;28;20175;-66
2022/06/11 07:08:12;;;;;;;2.70;1.60;;;34.30;48.10;;;;;;5074025;28;20211;-66
2022/06/11 07:10:38;;;;;;;2.75;1.50;;;34.30;48.00;;;;;;5074835;28;20182;-66
2022/06/11 07:13:03;;;;;;;7.28;1.80;;;34.60;47.90;;;;;;5074964;28;20184;-66
2022/06/11 07:15:29;;;;;;;4.80;1.60;;;34.70;46.60;;;;;;5075505;28;20627;-66
2022/06/11 07:18:13;;;;;;;3.70;1.80;;;34.60;46.60;;;;;;5074993;28;20184;-66
2022/06/11 07:20:42;;;;;;;3.53;1.90;;;34.60;45.80;;;;;;5075064;28;20216;-66
2022/06/11 07:23:30;;;;;;;3.20;1.70;;;34.40;46.50;;;;;;5061996;28;20540;-66
2022/06/11 07:25:56;;;;;;;2.30;1.70;;;34.50;46.50;;;;;;5073511;28;20172;-66
2022/06/11 07:28:33;;;;;;;2.58;1.67;;;34.60;46.60;;;;;;5074904;28;20179;-66
2022/06/11 07:31:00;;;;;;;2.05;1.80;;;34.80;46.20;;;;;;5074818;28;20222;-66
2022/06/11 07:33:26;;;;;;;6.00;2.03;;;35.00;46.40;;;;;;5075042;28;20263;-66
2022/06/11 07:35:53;;;;;;;4.47;1.77;;;34.80;45.80;;;;;;5074888;28;20221;-66
2022/06/11 07:38:20;;;;;;;2.83;1.55;;;34.70;45.70;;;;;;5073851;28;20186;-66
2022/06/11 07:40:47;;;;;;;2.28;1.80;;;34.10;45.20;;;;;;5074995;28;20315;-65
2022/06/11 07:43:12;;;;;;;3.08;1.80;;;34.10;46.00;;;;;;5073392;28;20697;-66
2022/06/11 07:45:41;;;;;;;3.45;1.83;;;34.20;46.20;;;;;;5074759;28;20195;-66
2022/06/11 07:48:08;;;;;;;4.30;2.15;;;34.30;47.00;;;;;;5073483;28;20176;-66
2022/06/11 07:50:37;;;;;;;2.50;1.88;;;34.30;46.90;;;;;;5073921;28;20188;-66
2022/06/11 07:53:04;;;;;;;7.30;3.28;;;34.00;46.30;;;;;;5074687;28;20245;-66
2022/06/11 07:55:31;;;;;;;3.35;2.17;;;33.90;46.30;;;;;;5073309;28;20206;-66
2022/06/11 07:57:57;;;;;;;4.18;1.70;;;33.40;46.40;;;;;;5074352;28;20183;-66
2022/06/11 08:00:27;;;;;;;3.92;1.98;;;32.60;48.00;;;;;;5074453;28;20674;-66
2022/06/11 08:02:52;;;;;;;4.20;2.00;;;32.70;49.10;;;;;;5074236;28;20177;-66
2022/06/11 08:05:18;;;;;;;2.63;1.92;;;32.80;47.80;;;;;;5074370;28;20180;-66
2022/06/11 08:07:44;;;;;;;4.07;1.80;;;32.60;49.30;;;;;;5074137;28;20179;-66
2022/06/11 08:10:11;;;;;;;2.55;1.67;;;32.70;50.40;;;;;;5074369;28;20189;-66
2022/06/11 08:12:37;;;;;;;5.78;2.15;;;32.90;48.70;;;;;;5074073;28;20168;-66
2022/06/11 08:15:04;;;;;;;4.80;1.63;;;32.60;50.20;;;;;;5074488;28;20245;-66
2022/06/11 08:17:31;;;;;;;2.33;1.70;;;32.60;50.30;;;;;;5073993;28;20177;-66
2022/06/11 08:19:57;;;;;;;12.45;6.25;;;32.70;50.00;;;;;;5065127;28;20236;-66
2022/06/11 08:22:22;;;;;;;3.50;2.17;;;33.00;50.40;;;;;;5054734;28;20173;-66
2022/06/11 08:24:49;;;;;;;4.97;1.83;;;33.40;49.90;;;;;;5073917;28;20594;-67
2022/06/11 08:27:15;;;;;;;5.22;2.00;;;33.80;48.50;;;;;;5072977;28;20180;-67
2022/06/11 08:29:41;;;;;;;2.67;1.88;;;34.20;49.00;;;;;;5073889;28;20176;-67
2022/06/11 08:32:07;;;;;;;2.83;1.50;;;34.20;48.20;;;;;;5073527;28;20184;-67
2022/06/11 08:34:38;;;;;;;2.45;1.92;;;34.40;47.10;;;;;;5054650;28;20243;-67
2022/06/11 08:37:03;;;;;;;3.80;1.75;;;34.40;47.00;;;;;;5059792;28;20272;-67
2022/06/11 08:39:29;;;;;;;3.42;1.90;;;34.60;47.30;;;;;;5063455;28;20354;-67
2022/06/11 08:41:56;;;;;;;3.03;1.70;;;34.70;46.00;;;;;;5073382;28;20734;-67
2022/06/11 08:44:23;;;;;;;4.05;2.00;;;34.80;45.60;;;;;;5065177;28;20193;-67
2022/06/11 08:46:50;;;;;;;2.33;1.80;;;34.70;45.80;;;;;;5054570;28;20593;-67
2022/06/11 08:49:31;;;;;;;5.97;1.55;;;34.70;45.50;;;;;;5070186;28;20177;-67
2022/06/11 08:52:25;;;;;;;2.72;1.63;;;34.70;45.60;;;;;;5062981;28;20918;-66
2022/06/11 08:54:51;;;;;;;3.72;1.85;;;34.70;46.20;;;;;;5051515;28;20264;-66
2022/06/11 08:57:44;;;;;;;2.88;1.67;;;34.60;45.70;;;;;;5060773;28;20707;-66
2022/06/11 09:00:33;;;;;;;3.33;1.70;;;34.80;46.60;;;;;;5071399;28;20483;-66
2022/06/11 09:03:13;;;;;;;2.88;1.52;;;34.90;46.20;;;;;;5070021;28;20530;-67
2022/06/11 09:06:06;;;;;;;3.40;1.25;;;34.60;45.80;;;;;;5073061;28;20184;-67
2022/06/11 09:09:16;;;;;;;3.92;1.35;;;34.40;44.30;;;;;;5053292;28;20169;-65
2022/06/11 09:12:00;;;;;;;4.30;1.48;;;34.20;42.40;;;;;;5046892;28;20637;-62
2022/06/11 09:14:50;;;;;;;1.75;1.40;;;33.80;44.10;;;;;;5053165;28;20185;-63
2022/06/11 09:17:45;;;;;;;2.53;1.27;;;33.90;45.30;;;;;;5058625;28;20172;-63
2022/06/11 09:20:35;;;;;;;2.42;1.50;;;34.20;46.50;;;;;;5072773;28;20250;-63
2022/06/11 09:23:13;;;;;;;2.60;1.40;;;34.40;44.70;;;;;;5071852;28;20580;-63
2022/06/11 09:26:07;;;;;;;2.47;1.20;;;34.30;44.40;;;;;;5073094;28;20293;-63
2022/06/11 09:28:41;;;;;;;1.52;0.80;;;34.30;43.10;;;;;;5072515;28;20858;-63
2022/06/11 09:31:14;;;;;;;2.10;1.08;;;34.40;42.30;;;;;;5072854;28;20410;-63
2022/06/11 09:34:09;;;;;;;1.80;1.00;;;34.30;42.20;;;;;;5072514;28;20207;-63
2022/06/11 09:36:47;;;;;;;3.88;1.40;;;34.30;43.60;;;;;;5065278;28;20236;-63
2022/06/11 09:39:31;;;;;;;1.50;1.17;;;33.80;43.80;;;;;;5069108;28;20196;-64
2022/06/11 09:42:32;;;;;;;2.00;1.20;;;33.40;44.20;;;;;;5072560;28;20180;-63
2022/06/11 09:45:20;;;;;;;2.10;1.00;;;33.50;43.60;;;;;;5072689;28;20535;-63
2022/06/11 09:47:58;;;;;;;3.28;1.30;;;33.60;44.60;;;;;;5072706;28;20184;-63
2022/06/11 09:50:37;;;;;;;2.90;1.10;;;32.90;42.60;;;;;;5071237;28;20210;-63
2022/06/11 09:53:15;;;;;;;6.15;2.80;;;32.70;44.90;;;;;;5072313;28;20904;-57
2022/06/11 09:55:51;;;;;;;3.47;1.25;;;32.50;45.80;;;;;;5072422;28;20238;-65
2022/06/11 09:58:29;;;;;;;4.38;1.30;;;32.60;44.10;;;;;;5072429;28;20165;-61
2022/06/11 10:00:59;;;;;;;4.40;1.42;;;33.00;44.30;;;;;;5067924;28;20216;-63
2022/06/11 10:03:38;;;;;;;4.03;1.23;;;33.40;44.00;;;;;;5072545;28;20219;-63
2022/06/11 10:06:35;;;;;;;2.83;1.30;;;33.80;43.80;;;;;;5072199;28;20184;-63
2022/06/11 10:09:04;;;;;;;4.57;1.20;;;34.00;43.60;;;;;;5071395;28;20189;-64
2022/06/11 10:11:51;;;;;;;1.42;1.30;;;33.80;43.30;;;;;;5071295;28;20199;-63
2022/06/11 10:14:31;;;;;;;5.25;1.30;;;33.50;42.70;;;;;;5052195;28;20181;-64
2022/06/11 10:16:56;;;;;;;2.75;1.30;;;33.30;44.80;;;;;;5054024;28;20173;-64
2022/06/11 10:19:44;;;;;;;3.33;1.20;;;33.40;43.90;;;;;;5072080;28;20221;-64
2022/06/11 10:22:26;;;;;;;2.33;1.23;;;33.30;44.80;;;;;;5071839;28;20193;-63
2022/06/11 10:25:02;;;;;;;3.10;1.70;;;33.30;43.50;;;;;;5072060;28;20180;-64
2022/06/11 10:27:33;;;;;;;2.60;1.20;;;33.30;44.90;;;;;;5071624;28;20302;-63
2022/06/11 10:30:05;;;;;;;2.58;1.13;;;33.20;45.70;;;;;;5078892;28;20184;-64
2022/06/11 10:32:37;;;;;;;2.45;1.10;;;33.30;45.40;;;;;;5072089;28;20180;-63
2022/06/11 10:35:17;;;;;;;3.28;1.05;;;33.40;45.70;;;;;;5051666;28;20177;-63
2022/06/11 10:37:49;;;;;;;1.58;0.80;;;32.90;44.60;;;;;;5051735;28;20186;-63
2022/06/11 10:40:21;;;;;;;3.20;1.35;;;32.90;43.80;;;;;;5051564;28;20216;-63
2022/06/11 10:42:51;;;;;;;3.17;1.30;;;32.60;44.60;;;;;;5051855;28;20775;-64
2022/06/11 10:45:17;;;;;;;2.80;1.20;;;31.90;45.10;;;;;;5056240;28;20169;-62
2022/06/11 10:47:48;;;;;;;2.38;1.52;;;31.80;47.50;;;;;;5072022;28;20208;-64
2022/06/11 10:50:14;;;;;;;2.15;1.10;;;31.90;48.30;;;;;;5072002;28;20180;-64
2022/06/11 10:52:58;;;;;;;3.45;1.20;;;32.30;46.00;;;;;;5071973;28;20187;-64
2022/06/11 10:55:41;;;;;;;1.25;1.13;;;32.40;46.50;;;;;;5071999;28;20181;-65
2022/06/11 10:58:38;;;;;;;4.65;1.30;;;32.30;46.50;;;;;;5071811;28;20172;-64
2022/06/11 11:01:09;;;;;;;3.08;1.20;;;32.60;46.60;;;;;;5064166;28;20220;-64
2022/06/11 11:03:46;;;;;;;2.55;1.30;;;32.90;46.10;;;;;;5071811;28;20181;-64
2022/06/11 11:06:34;;;;;;;6.15;1.50;;;33.20;45.80;;;;;;5071569;28;20173;-64
2022/06/11 11:09:05;;;;;;;3.13;1.65;;;33.30;45.50;;;;;;5071545;28;20215;-64
2022/06/11 11:11:44;;;;;;;2.30;1.30;;;33.30;45.30;;;;;;5071682;28;20588;-64
2022/06/11 11:14:35;;;;;;;3.08;1.65;;;33.40;45.30;;;;;;5071428;28;20188;-65
2022/06/11 11:17:03;;;;;;;3.55;1.20;;;33.20;46.00;;;;;;5071047;28;20189;-66
2022/06/11 11:19:32;;;;;;;2.53;1.20;;;33.20;45.80;;;;;;5071201;28;20224;-66
2022/06/11 11:22:04;;;;;;;1.77;1.00;;;33.10;45.80;;;;;;5072298;28;20288;-64
2022/06/11 11:24:38;;;;;;;5.65;1.83;;;33.30;45.60;;;;;;5075321;28;20649;-63
2022/06/11 11:27:13;;;;;;;1.70;1.17;;;33.50;45.20;;;;;;5073776;28;20184;-65
2022/06/11 11:29:55;;;;;;;1.35;1.00;;;33.60;44.70;;;;;;5074430;28;20219;-65
2022/06/11 11:32:33;;;;;;;3.42;1.38;;;33.50;44.70;;;;;;5072511;28;20188;-65
2022/06/11 11:35:26;;;;;;;2.65;1.20;;;33.30;45.20;;;;;;5067332;28;20180;-65
2022/06/11 11:38:23;;;;;;;3.60;1.50;;;32.90;45.10;;;;;;5074812;28;20595;-66
2022/06/11 11:40:58;;;;;;;2.25;1.17;;;32.60;45.90;;;;;;5072869;28;20563;-65
2022/06/11 11:43:31;;;;;;;2.08;1.20;;;32.40;46.20;;;;;;5074517;28;20267;-65
2022/06/11 11:46:00;;;;;;;2.20;1.30;;;32.40;46.00;;;;;;5074485;28;20183;-66
2022/06/11 11:48:33;;;;;;;3.30;1.30;;;32.60;46.00;;;;;;5074340;28;20173;-65
2022/06/11 11:51:26;;;;;;;2.10;1.30;;;32.70;46.30;;;;;;5074343;28;20181;-65
2022/06/11 11:54:24;;;;;;;1.83;1.20;;;32.50;45.80;;;;;;5074624;28;20246;-65
2022/06/11 11:57:11;;;;;;;3.28;1.45;;;32.30;45.70;;;;;;5070023;28;20197;-64
2022/06/11 11:59:44;;;;;;;2.45;1.20;;;32.20;47.00;;;;;;5073943;28;20242;-65
2022/06/11 12:02:15;;;;;;;1.33;1.27;;;32.30;47.40;;;;;;5060054;28;20188;-65
2022/06/11 12:04:49;;;;;;;1.83;1.27;;;32.40;47.10;;;;;;5074169;28;20176;-64
2022/06/11 12:07:16;;;;;;;2.40;1.20;;;32.50;46.80;;;;;;5074069;28;20176;-66
2022/06/11 12:09:52;;;;;;;2.38;1.00;;;32.60;46.70;;;;;;5074341;28;20172;-65
2022/06/11 12:12:34;;;;;;;1.80;1.35;;;32.70;46.00;;;;;;5071720;28;20180;-64
2022/06/11 12:15:22;;;;;;;3.78;2.13;;;32.80;46.00;;;;;;5074018;28;20181;-65
2022/06/11 12:17:57;;;;;;;5.35;1.40;;;32.90;46.10;;;;;;5074405;28;20577;-66
2022/06/11 12:20:26;;;;;;;2.25;1.23;;;32.70;45.40;;;;;;5074032;28;20224;-65
2022/06/11 12:23:00;;;;;;;6.85;1.60;;;32.40;45.80;;;;;;5072640;28;20184;-65
2022/06/11 12:25:47;;;;;;;2.85;1.10;;;32.50;45.90;;;;;;5066792;28;20539;-65
2022/06/11 12:28:17;;;;;;;1.80;1.13;;;32.50;45.80;;;;;;5073331;28;20181;-65
2022/06/11 12:30:43;;;;;;;3.75;1.23;;;32.40;45.20;;;;;;5074104;28;20674;-65
2022/06/11 12:33:12;;;;;;;1.73;1.17;;;32.50;46.20;;;;;;5073873;28;20177;-65
2022/06/11 12:35:41;;;;;;;3.00;2.08;;;32.70;47.10;;;;;;5073686;28;20718;-65
2022/06/11 12:38:38;;;;;;;2.80;1.40;;;32.70;46.00;;;;;;5073922;28;20654;-65
2022/06/11 12:41:20;;;;;;;2.72;1.50;;;32.70;46.80;;;;;;5073654;28;20232;-65
2022/06/11 12:43:58;;;;;;;3.67;1.20;;;32.60;46.30;;;;;;5069651;28;20177;-65
2022/06/11 12:46:59;;;;;;;1.67;1.02;;;32.40;46.70;;;;;;5073927;28;20780;-65
2022/06/11 12:49:37;;;;;;;2.15;1.30;;;32.20;46.50;;;;;;5073158;28;20205;-65
2022/06/11 12:52:18;;;;;;;1.63;1.10;;;31.90;47.10;;;;;;5073472;28;20263;-65
2022/06/11 12:54:50;;;;;;;3.65;1.35;;;31.90;46.60;;;;;;5071346;28;20181;-65
2022/06/11 12:57:47;;;;;;;3.53;1.30;;;32.00;46.50;;;;;;5073375;28;20238;-65
2022/06/11 13:00:41;;;;;;;5.00;1.50;;;31.70;46.80;;;;;;5071485;28;20311;-65
2022/06/11 13:03:30;;;;;;;3.90;1.40;;;31.70;48.30;;;;;;5072841;28;20179;-65
2022/06/11 13:06:17;;;;;;;3.33;1.42;;;31.70;46.80;;;;;;5053048;28;20173;-65
2022/06/11 13:08:48;;;;;;;6.72;2.05;;;31.40;46.80;;;;;;5055354;28;20178;-64
2022/06/11 13:11:38;;;;;;;2.33;1.30;;;31.30;47.50;;;;;;5071328;28;20177;-63
2022/06/11 13:14:22;;;;;;;3.08;1.20;;;31.30;48.40;;;;;;5070886;28;20176;-63